sensor_id;sensor_type;location;lat;lon;timestamp;P1;durP1;ratioP1;P2;durP2;ratioP2
16727;SDS011;8482;54.396;18.590;2023-08-06T18:59:16;6.88;;;4.65;;
16727;SDS011;8482;54.396;18.590;2023-08-06T19:01:46;6.50;;;4.68;;
16727;SDS011;8482;54.396;18.590;2023-08-06T19:04:12;5.03;;;3.88;;
16727;SDS011;8482;54.396;18.590;2023-08-06T19:06:38;6.68;;;4.68;;
16727;SDS011;8482;54.396;18.590;2023-08-06T19:09:04;5.80;;;3.90;;
16727;SDS011;8482;54.396;18.590;2023-08-06T19:11:29;6.07;;;4.25;;
16727;SDS011;8482;54.396;18.590;2023-08-06T19:13:55;5.60;;;3.97;;
16727;SDS011;8482;54.396;18.590;2023-08-06T19:16:21;7.03;;;3.88;;
16727;SDS011;8482;54.396;18.590;2023-08-06T19:18:47;6.03;;;3.95;;
16727;SDS011;8482;54.396;18.590;2023-08-06T19:21:14;5.78;;;4.10;;
16727;SDS011;8482;54.396;18.590;2023-08-06T19:23:39;6.43;;;4.25;;
16727;SDS011;8482;54.396;18.590;2023-08-06T19:26:05;7.25;;;4.68;;
16727;SDS011;8482;54.396;18.590;2023-08-06T19:28:31;6.88;;;4.43;;
16727;SDS011;8482;54.396;18.590;2023-08-06T19:30:59;6.68;;;4.28;;
16727;SDS011;8482;54.396;18.590;2023-08-06T19:33:24;6.20;;;3.90;;
16727;SDS011;8482;54.396;18.590;2023-08-06T19:35:51;7.53;;;4.80;;
16727;SDS011;8482;54.396;18.590;2023-08-06T19:38:19;6.65;;;4.57;;
16727;SDS011;8482;54.396;18.590;2023-08-06T19:40:47;6.70;;;4.80;;
16727;SDS011;8482;54.396;18.590;2023-08-06T19:43:14;7.72;;;4.53;;
16727;SDS011;8482;54.396;18.590;2023-08-06T19:45:40;7.10;;;4.45;;
16727;SDS011;8482;54.396;18.590;2023-08-06T19:48:13;9.07;;;4.60;;
16727;SDS011;8482;54.396;18.590;2023-08-06T19:50:38;7.45;;;4.47;;
16727;SDS011;8482;54.396;18.590;2023-08-06T19:53:04;6.60;;;4.55;;
16727;SDS011;8482;54.396;18.590;2023-08-06T19:55:30;6.70;;;4.70;;
16727;SDS011;8482;54.396;18.590;2023-08-06T19:57:56;7.90;;;4.93;;
16727;SDS011;8482;54.396;18.590;2023-08-06T20:00:22;7.18;;;4.20;;
16727;SDS011;8482;54.396;18.590;2023-08-06T20:02:48;8.50;;;5.18;;
16727;SDS011;8482;54.396;18.590;2023-08-06T20:05:14;6.13;;;4.38;;
16727;SDS011;8482;54.396;18.590;2023-08-06T20:07:41;6.97;;;5.07;;
16727;SDS011;8482;54.396;18.590;2023-08-06T20:10:07;7.72;;;4.88;;
16727;SDS011;8482;54.396;18.590;2023-08-06T20:12:33;7.47;;;4.35;;
16727;SDS011;8482;54.396;18.590;2023-08-06T20:14:59;7.05;;;4.47;;
16727;SDS011;8482;54.396;18.590;2023-08-06T20:17:25;7.32;;;4.90;;
16727;SDS011;8482;54.396;18.590;2023-08-06T20:19:50;6.55;;;4.15;;
16727;SDS011;8482;54.396;18.590;2023-08-06T20:22:16;6.38;;;4.10;;
16727;SDS011;8482;54.396;18.590;2023-08-06T20:24:42;5.68;;;3.88;;
16727;SDS011;8482;54.396;18.590;2023-08-06T20:27:08;5.68;;;3.72;;
16727;SDS011;8482;54.396;18.590;2023-08-06T20:29:35;5.63;;;3.53;;
16727;SDS011;8482;54.396;18.590;2023-08-06T20:32:01;5.35;;;3.65;;
16727;SDS011;8482;54.396;18.590;2023-08-06T20:34:26;5.82;;;3.53;;
16727;SDS011;8482;54.396;18.590;2023-08-06T20:36:52;5.65;;;3.72;;
16727;SDS011;8482;54.396;18.590;2023-08-06T20:39:18;5.05;;;3.00;;
16727;SDS011;8482;54.396;18.590;2023-08-06T20:41:44;4.28;;;2.75;;
16727;SDS011;8482;54.396;18.590;2023-08-06T20:44:10;4.18;;;2.67;;
16727;SDS011;8482;54.396;18.590;2023-08-06T20:46:36;3.28;;;2.25;;
16727;SDS011;8482;54.396;18.590;2023-08-06T20:49:01;3.30;;;2.22;;
16727;SDS011;8482;54.396;18.590;2023-08-06T20:51:27;3.30;;;2.28;;
16727;SDS011;8482;54.396;18.590;2023-08-06T20:53:53;3.75;;;2.38;;
16727;SDS011;8482;54.396;18.590;2023-08-06T20:56:19;5.35;;;2.15;;
16727;SDS011;8482;54.396;18.590;2023-08-06T20:58:45;3.53;;;2.15;;
16727;SDS011;8482;54.396;18.590;2023-08-06T21:01:11;3.35;;;2.00;;
16727;SDS011;8482;54.396;18.590;2023-08-06T21:03:37;2.95;;;1.67;;
16727;SDS011;8482;54.396;18.590;2023-08-06T21:06:03;4.28;;;1.80;;
16727;SDS011;8482;54.396;18.590;2023-08-06T21:08:32;2.72;;;1.70;;
16727;SDS011;8482;54.396;18.590;2023-08-06T21:11:00;2.00;;;1.50;;
16727;SDS011;8482;54.396;18.590;2023-08-06T21:13:28;2.58;;;1.63;;
16727;SDS011;8482;54.396;18.590;2023-08-06T21:16:01;1.92;;;1.38;;
16727;SDS011;8482;54.396;18.590;2023-08-06T21:18:32;1.88;;;1.52;;
16727;SDS011;8482;54.396;18.590;2023-08-06T21:21:00;2.15;;;1.60;;
16727;SDS011;8482;54.396;18.590;2023-08-06T21:23:27;2.58;;;1.50;;
16727;SDS011;8482;54.396;18.590;2023-08-06T21:26:02;1.80;;;1.40;;
16727;SDS011;8482;54.396;18.590;2023-08-06T21:28:30;2.53;;;1.50;;
16727;SDS011;8482;54.396;18.590;2023-08-06T21:31:06;2.55;;;1.35;;
16727;SDS011;8482;54.396;18.590;2023-08-06T21:33:34;1.95;;;1.30;;
16727;SDS011;8482;54.396;18.590;2023-08-06T21:36:01;2.00;;;1.65;;
16727;SDS011;8482;54.396;18.590;2023-08-06T21:38:35;2.28;;;1.40;;
16727;SDS011;8482;54.396;18.590;2023-08-06T21:41:05;3.08;;;1.75;;
16727;SDS011;8482;54.396;18.590;2023-08-06T21:43:38;2.10;;;1.50;;
16727;SDS011;8482;54.396;18.590;2023-08-06T21:46:09;2.13;;;1.48;;
16727;SDS011;8482;54.396;18.590;2023-08-06T21:48:38;1.90;;;1.48;;
16727;SDS011;8482;54.396;18.590;2023-08-06T21:51:07;1.40;;;1.20;;
16727;SDS011;8482;54.396;18.590;2023-08-06T21:53:35;1.60;;;1.23;;
16727;SDS011;8482;54.396;18.590;2023-08-06T21:56:03;1.70;;;1.20;;
16727;SDS011;8482;54.396;18.590;2023-08-06T21:58:38;1.20;;;1.10;;
16727;SDS011;8482;54.396;18.590;2023-08-06T22:01:10;1.95;;;1.38;;
16727;SDS011;8482;54.396;18.590;2023-08-06T22:03:37;1.67;;;1.27;;
16727;SDS011;8482;54.396;18.590;2023-08-06T22:06:05;1.45;;;1.20;;
16727;SDS011;8482;54.396;18.590;2023-08-06T22:08:33;2.80;;;1.10;;
16727;SDS011;8482;54.396;18.590;2023-08-06T22:10:59;2.00;;;1.30;;
16727;SDS011;8482;54.396;18.590;2023-08-06T22:13:25;1.48;;;1.00;;
16727;SDS011;8482;54.396;18.590;2023-08-06T22:15:51;1.23;;;1.10;;
16727;SDS011;8482;54.396;18.590;2023-08-06T22:18:18;1.92;;;1.50;;
16727;SDS011;8482;54.396;18.590;2023-08-06T22:20:44;1.67;;;1.25;;
16727;SDS011;8482;54.396;18.590;2023-08-06T22:23:10;2.05;;;1.52;;
16727;SDS011;8482;54.396;18.590;2023-08-06T22:25:36;1.80;;;1.40;;
16727;SDS011;8482;54.396;18.590;2023-08-06T22:28:02;3.13;;;1.60;;
16727;SDS011;8482;54.396;18.590;2023-08-06T22:30:28;3.22;;;1.48;;
16727;SDS011;8482;54.396;18.590;2023-08-06T22:32:54;1.73;;;1.20;;
16727;SDS011;8482;54.396;18.590;2023-08-06T22:35:20;2.13;;;1.30;;
16727;SDS011;8482;54.396;18.590;2023-08-06T22:37:47;2.67;;;1.30;;
16727;SDS011;8482;54.396;18.590;2023-08-06T22:40:14;4.10;;;1.38;;
16727;SDS011;8482;54.396;18.590;2023-08-06T22:42:41;1.30;;;1.20;;
16727;SDS011;8482;54.396;18.590;2023-08-06T22:45:09;1.83;;;1.20;;
16727;SDS011;8482;54.396;18.590;2023-08-06T22:47:39;1.45;;;1.25;;
16727;SDS011;8482;54.396;18.590;2023-08-06T22:50:06;2.00;;;1.20;;
16727;SDS011;8482;54.396;18.590;2023-08-06T22:52:34;2.08;;;1.25;;
16727;SDS011;8482;54.396;18.590;2023-08-06T22:55:01;2.97;;;1.40;;
16727;SDS011;8482;54.396;18.590;2023-08-06T22:57:27;2.40;;;1.20;;
16727;SDS011;8482;54.396;18.590;2023-08-06T22:59:54;1.88;;;1.15;;
16727;SDS011;8482;54.396;18.590;2023-08-06T23:02:19;1.55;;;0.93;;
16727;SDS011;8482;54.396;18.590;2023-08-06T23:04:46;1.00;;;0.90;;
16727;SDS011;8482;54.396;18.590;2023-08-06T23:07:12;1.63;;;0.82;;
16727;SDS011;8482;54.396;18.590;2023-08-06T23:09:38;1.30;;;0.90;;
16727;SDS011;8482;54.396;18.590;2023-08-06T23:12:04;1.02;;;0.80;;
16727;SDS011;8482;54.396;18.590;2023-08-06T23:14:30;0.95;;;0.73;;
16727;SDS011;8482;54.396;18.590;2023-08-06T23:16:56;0.70;;;0.63;;
16727;SDS011;8482;54.396;18.590;2023-08-06T23:19:22;1.00;;;0.90;;
16727;SDS011;8482;54.396;18.590;2023-08-06T23:21:48;1.25;;;0.70;;
16727;SDS011;8482;54.396;18.590;2023-08-06T23:24:13;0.80;;;0.70;;
16727;SDS011;8482;54.396;18.590;2023-08-06T23:26:39;1.02;;;0.70;;
16727;SDS011;8482;54.396;18.590;2023-08-06T23:29:05;4.22;;;1.00;;
16727;SDS011;8482;54.396;18.590;2023-08-06T23:31:31;2.22;;;0.88;;
16727;SDS011;8482;54.396;18.590;2023-08-06T23:33:57;1.25;;;0.70;;
16727;SDS011;8482;54.396;18.590;2023-08-06T23:36:23;0.77;;;0.77;;
16727;SDS011;8482;54.396;18.590;2023-08-06T23:38:49;1.23;;;0.77;;
16727;SDS011;8482;54.396;18.590;2023-08-06T23:41:17;1.33;;;0.82;;
16727;SDS011;8482;54.396;18.590;2023-08-06T23:43:42;1.80;;;0.80;;
16727;SDS011;8482;54.396;18.590;2023-08-06T23:46:10;1.25;;;0.55;;
16727;SDS011;8482;54.396;18.590;2023-08-06T23:48:36;0.63;;;0.50;;
16727;SDS011;8482;54.396;18.590;2023-08-06T23:51:02;0.98;;;0.60;;
16727;SDS011;8482;54.396;18.590;2023-08-06T23:53:27;1.00;;;0.60;;
16727;SDS011;8482;54.396;18.590;2023-08-06T23:55:53;1.15;;;0.80;;
16727;SDS011;8482;54.396;18.590;2023-08-06T23:58:19;0.50;;;0.50;;
